マイアミ の空港の天気 - METARとTAF

マイアミ国際空港 ( KMIA / MIA ) - アメリカ フロリダ州マイアミ
飛行場実況気象(Metar)
観測時間10/20 12:53 EDT (10/20 16:53 UTC)
風向・風速不定 2m/s
視程10km以上
天気現象
全天の4割程度の雲 雲底高度 910m
全天の4割程度の雲 雲底高度 2130m
気温30℃
湿度67%
気圧1017hPa
METARKMIA 201653Z VRB04KT 10SM SCT030 SCT070 30/23 A3003 RMK AO2 SLP170 T03000233
過去の天気等 Google飛行場航空写真 Wunderground天気予報

過去48時間のMETAR

飛行場予報(TAF)
発表時間: 10/20 13:22 EDT (10/20 17:22 UTC)
予報対象時間: 20日14時 EDT ~ 21日20時 EDT
風向・風速東南東 4m/s
視程10km以上
全天の4割程度の雲 雲底高度 760m
全天の4割程度の雲 雲底高度 2130m
20日20時 EDT から
風向・風速不定 2m/s
視程10km以上
少しの雲 雲底高度 760m
全天の4割程度の雲 雲底高度 7620m
21日12時 EDT から
風向・風速北 4m/s
視程10km以上
全天の4割程度の雲 雲底高度 910m
KMIA 201722Z 2018/2124 12007KT P6SM SCT025 SCT070
FM210000 VRB04KT P6SM FEW025 SCT250
FM211600 01008KT P6SM SCT030